Time;durP1;ratioP1;P1;durP2;ratioP2;P2;SDS_P1;SDS_P2;PMS_P1;PMS_P2;Temp;Humidity;BMP_temperature;BMP_pressure;BME280_temperature;BME280_humidity;BME280_pressure;Samples;Min_cycle;Max_cycle;Signal;HPM_P1;HPM_P2
2023/02/16 00:01:34;;;;;;;;;;;1.80;92.00;;;;;;5089186;28;19908;-78
2023/02/16 00:04:00;;;;;;;;;;;1.70;92.60;;;;;;5089528;28;19911;-78
2023/02/16 00:06:27;;;;;;;;;;;1.60;93.30;;;;;;5093220;28;19926;-78
2023/02/16 00:08:53;;;;;;;;;;;1.70;93.80;;;;;;5092215;28;19954;-78
2023/02/16 00:14:05;;;;;;;;;;;1.70;92.40;;;;;;5092324;28;20237;-77
2023/02/16 00:16:31;;;;;;;;;;;1.70;93.50;;;;;;5091589;28;20349;-78
2023/02/16 00:18:56;;;;;;;;;;;1.70;93.80;;;;;;5092671;28;19908;-78
2023/02/16 00:21:22;;;;;;;;;;;1.50;93.90;;;;;;5092815;28;20407;-78
2023/02/16 00:23:48;;;;;;;;;;;;;;;;;;5092233;28;19904;-78
2023/02/16 00:26:18;;;;;;;;;;;1.30;94.80;;;;;;5092830;28;20681;-78
2023/02/16 00:28:44;;;;;;;;;;;1.20;95.70;;;;;;5092586;28;20052;-78
2023/02/16 00:31:17;;;;;;;;;;;1.30;95.00;;;;;;5092808;28;20490;-78
2023/02/16 00:33:42;;;;;;;;;;;1.30;96.20;;;;;;5091795;28;19919;-78
2023/02/16 00:36:08;;;;;;;;;;;1.30;93.10;;;;;;5092271;28;19907;-78
2023/02/16 00:38:34;;;;;;;;;;;;;;;;;;5092016;28;20281;-78
2023/02/16 00:41:00;;;;;;;;;;;;;;;;;;5092247;28;19993;-78
2023/02/16 00:43:26;;;;;;;;;;;1.20;94.20;;;;;;5092506;28;19938;-78
2023/02/16 00:45:52;;;;;;;;;;;1.10;96.10;;;;;;5092049;28;19919;-78
2023/02/16 00:48:18;;;;;;;;;;;;;;;;;;5092407;28;19904;-77
2023/02/16 00:50:44;;;;;;;;;;;;;;;;;;5091090;28;19947;-78
2023/02/16 00:53:10;;;;;;;;;;;0.90;95.20;;;;;;5091928;28;20327;-77
2023/02/16 00:55:37;;;;;;;;;;;0.80;97.40;;;;;;5092007;28;19904;-78
2023/02/16 00:58:17;;;;;;;;;;;0.90;97.90;;;;;;5092472;28;20007;-78
2023/02/16 01:00:44;;;;;;;;;;;;;;;;;;5091797;28;19908;-78
2023/02/16 01:03:17;;;;;;;;;;;1.00;99.80;;;;;;5091946;28;20015;-79
2023/02/16 01:05:43;;;;;;;;;;;;;;;;;;5091555;28;19911;-78
2023/02/16 01:11:08;;;;;;;;;;;1.00;96.10;;;;;;5091387;28;19964;-78
2023/02/16 01:13:40;;;;;;;;;;;0.90;95.40;;;;;;5091772;28;19999;-78
2023/02/16 01:16:11;;;;;;;;;;;0.90;98.20;;;;;;5091077;28;20448;-78
2023/02/16 01:18:37;;;;;;;;;;;1.00;96.90;;;;;;5091810;28;20293;-78
2023/02/16 01:21:02;;;;;;;;;;;1.00;96.30;;;;;;5089987;28;19915;-78
2023/02/16 01:23:28;;;;;;;;;;;0.90;97.20;;;;;;5091632;28;20011;-78
2023/02/16 01:25:54;;;;;;;;;;;;;;;;;;5090982;28;19908;-78
2023/02/16 01:28:21;;;;;;;;;;;0.70;95.60;;;;;;5091293;28;19904;-77
2023/02/16 01:30:47;;;;;;;;;;;0.70;95.60;;;;;;5090939;28;20296;-78
2023/02/16 01:33:12;;;;;;;;;;;0.60;97.10;;;;;;5091027;28;19908;-78
2023/02/16 01:35:38;;;;;;;;;;;;;;;;;;5090807;28;19928;-78
2023/02/16 01:38:03;;;;;;;;;;;0.60;98.20;;;;;;5090995;28;19907;-78
2023/02/16 01:40:32;;;;;;;;;;;0.60;97.40;;;;;;5090792;28;19941;-78
2023/02/16 01:42:58;;;;;;;;;;;;;;;;;;5091024;28;19986;-78
2023/02/16 01:45:30;;;;;;;;;;;0.70;96.40;;;;;;5090877;28;20395;-75
2023/02/16 01:48:00;;;;;;;;;;;0.70;96.20;;;;;;5090895;28;20595;-77
2023/02/16 01:50:26;;;;;;;;;;;;;;;;;;5090583;28;19907;-78
2023/02/16 01:52:52;;;;;;;;;;;;;;;;;;5090634;28;19931;-77
2023/02/16 01:55:18;;;;;;;;;;;;;;;;;;5090968;28;19907;-78
2023/02/16 01:57:49;;;;;;;;;;;0.60;95.70;;;;;;5090378;28;20330;-78
2023/02/16 02:00:15;;;;;;;;;;;;;;;;;;5090804;28;19908;-78
2023/02/16 02:02:43;;;;;;;;;;;0.40;96.70;;;;;;5090616;28;20045;-78
2023/02/16 02:08:15;;;;;;;;;;;0.60;98.50;;;;;;5090486;28;19960;-78
2023/02/16 02:10:47;;;;;;;;;;;0.40;97.40;;;;;;5069840;28;20444;-78
2023/02/16 02:13:31;;;;;;;;;;;0.30;97.00;;;;;;5084853;28;20381;-78
2023/02/16 02:15:58;;;;;;;;;;;0.20;99.90;;;;;;5090886;28;19908;-78
2023/02/16 02:18:24;;;;;;;;;;;0.20;99.90;;;;;;5089616;28;19915;-78
2023/02/16 02:23:49;;;;;;;;;;;0.50;97.80;;;;;;5089971;28;19954;-79
2023/02/16 02:26:33;;;;;;;;;;;0.60;98.40;;;;;;5090223;28;19908;-77
2023/02/16 02:28:59;;;;;;;;;;;;;;;;;;5089920;28;19919;-78
2023/02/16 02:31:30;;;;;;;;;;;0.30;97.10;;;;;;5090614;28;20136;-78
2023/02/16 02:34:02;;;;;;;;;;;0.40;98.20;;;;;;5089661;28;20292;-78
2023/02/16 02:36:34;;;;;;;;;;;0.40;98.10;;;;;;5090529;28;19915;-77
2023/02/16 02:39:05;;;;;;;;;;;0.50;96.80;;;;;;5089930;28;19984;-78
2023/02/16 02:44:22;;;;;;;;;;;0.40;97.10;;;;;;5089952;28;19964;-78
2023/02/16 02:46:48;;;;;;;;;;;0.30;97.00;;;;;;5090722;28;19915;-78
2023/02/16 02:49:14;;;;;;;;;;;0.30;98.50;;;;;;5089790;28;19912;-78
2023/02/16 02:51:39;;;;;;;;;;;0.20;98.30;;;;;;5089719;28;20037;-78
2023/02/16 03:02:48;;;;;;;;;;;;;;;;;;5089651;28;19923;-78
2023/02/16 03:05:15;;;;;;;;;;;0.40;96.30;;;;;;5089372;28;19907;-78
2023/02/16 03:07:48;;;;;;;;;;;0.30;96.60;;;;;;5089710;28;19991;-78
2023/02/16 03:13:00;;;;;;;;;;;0.40;96.20;;;;;;5069641;28;20532;-78
2023/02/16 03:15:26;;;;;;;;;;;0.30;96.90;;;;;;5085100;28;20269;-78
2023/02/16 03:31:39;;;;;;;;;;;;;;;;;;5088622;28;19919;-78
2023/02/16 03:34:04;;;;;;;;;;;0.00;98.60;;;;;;5087794;28;19908;-78
2023/02/16 03:36:31;;;;;;;;;;;0.00;97.70;;;;;;5089103;28;19908;-78
2023/02/16 03:38:57;;;;;;;;;;;0.20;96.70;;;;;;5091693;28;19904;-78
2023/02/16 03:41:23;;;;;;;;;;;0.10;96.20;;;;;;5125835;27;19999;-78
2023/02/16 03:43:49;;;;;;;;;;;0.10;96.90;;;;;;5093481;28;19923;-78
2023/02/16 03:46:14;;;;;;;;;;;0.10;96.00;;;;;;5092878;28;19907;-77
2023/02/16 03:48:40;;;;;;;;;;;0.10;96.60;;;;;;5093588;28;19953;-77
2023/02/16 03:51:05;;;;;;;;;;;0.00;97.10;;;;;;5092608;28;19912;-78
2023/02/16 03:53:31;;;;;;;;;;;;;;;;;;5093093;28;19904;-78
2023/02/16 03:55:57;;;;;;;;;;;;;;;;;;5093074;28;20373;-78
2023/02/16 03:58:23;;;;;;;;;;;0.00;96.40;;;;;;5093725;28;19984;-77
2023/02/16 04:00:49;;;;;;;;;;;;;;;;;;5092905;28;20774;-78
2023/02/16 04:03:14;;;;;;;;;;;0.00;97.80;;;;;;5092862;28;20339;-77
2023/02/16 04:05:40;;;;;;;;;;;0.00;97.50;;;;;;5092738;28;19934;-77
2023/02/16 04:08:06;;;;;;;;;;;0.00;97.50;;;;;;5093133;28;19900;-78
2023/02/16 04:10:32;;;;;;;;;;;0.30;97.80;;;;;;5092466;28;19908;-77
2023/02/16 04:12:57;;;;;;;;;;;;;;;;;;5092838;28;19969;-78
2023/02/16 04:15:25;;;;;;;;;;;0.10;96.70;;;;;;5092658;28;19908;-77
2023/02/16 04:17:50;;;;;;;;;;;0.00;96.60;;;;;;5092417;28;20380;-77
2023/02/16 04:20:20;;;;;;;;;;;-0.10;96.80;;;;;;5092550;28;19911;-77
2023/02/16 04:22:46;;;;;;;;;;;;;;;;;;5092231;28;19916;-77
2023/02/16 04:25:12;;;;;;;;;;;-0.20;96.30;;;;;;5092325;28;20354;-77
2023/02/16 04:27:38;;;;;;;;;;;-0.30;96.80;;;;;;5092340;28;20354;-78
2023/02/16 04:30:05;;;;;;;;;;;-0.40;98.40;;;;;;5092453;28;19904;-78
2023/02/16 04:32:31;;;;;;;;;;;;;;;;;;5092075;28;19918;-78
2023/02/16 04:34:56;;;;;;;;;;;-0.40;97.70;;;;;;5092534;28;19908;-77
2023/02/16 04:37:22;;;;;;;;;;;-0.40;98.00;;;;;;5092239;28;20376;-77
2023/02/16 04:39:47;;;;;;;;;;;;;;;;;;5092343;28;19908;-77
2023/02/16 04:42:13;;;;;;;;;;;-0.30;98.20;;;;;;5090683;28;20394;-77
2023/02/16 04:44:39;;;;;;;;;;;-0.20;97.40;;;;;;5092211;28;19903;-77
2023/02/16 04:47:04;;;;;;;;;;;;;;;;;;5091557;28;19957;-78
2023/02/16 04:49:30;;;;;;;;;;;-0.20;96.90;;;;;;5091529;28;19904;-78
2023/02/16 04:51:56;;;;;;;;;;;-0.40;96.00;;;;;;5091717;28;19912;-78
2023/02/16 04:54:21;;;;;;;;;;;-0.40;97.30;;;;;;5091668;28;20338;-77
2023/02/16 04:56:48;;;;;;;;;;;-0.40;97.60;;;;;;5092531;28;19908;-78
2023/02/16 04:59:14;;;;;;;;;;;-0.30;96.10;;;;;;5091573;28;19908;-77
2023/02/16 05:01:40;;;;;;;;;;;-0.20;96.60;;;;;;5092262;28;19904;-78
2023/02/16 05:04:05;;;;;;;;;;;-0.20;96.70;;;;;;5090026;28;19915;-78
2023/02/16 05:06:31;;;;;;;;;;;-0.10;96.30;;;;;;5091558;28;19915;-77
2023/02/16 05:08:56;;;;;;;;;;;-0.10;96.30;;;;;;5091527;28;19912;-77
2023/02/16 05:16:50;;;;;;;;;;;-0.20;96.90;;;;;;5091793;28;19910;-78
2023/02/16 05:19:16;;;;;;;;;;;-0.30;96.30;;;;;;5091506;28;19911;-77
2023/02/16 05:21:41;;;;;;;;;;;-0.30;96.10;;;;;;5089748;28;20282;-77
2023/02/16 05:24:08;;;;;;;;;;;-0.30;96.60;;;;;;5089663;28;19951;-78
2023/02/16 05:26:34;;;;;;;;;;;-0.30;96.70;;;;;;5091446;28;19911;-77
2023/02/16 05:29:00;;;;;;;;;;;-0.50;96.50;;;;;;5089442;28;19904;-77
2023/02/16 05:31:27;;;;;;;;;;;-0.50;96.90;;;;;;5091410;28;20308;-78
2023/02/16 05:33:52;;;;;;;;;;;-0.40;97.50;;;;;;5091119;28;19908;-78
2023/02/16 05:36:18;;;;;;;;;;;;;;;;;;5091166;28;19915;-78
2023/02/16 05:38:44;;;;;;;;;;;-0.60;99.50;;;;;;5091354;28;19912;-77
2023/02/16 05:41:10;;;;;;;;;;;-0.30;99.10;;;;;;5089696;28;19911;-77
2023/02/16 05:43:35;;;;;;;;;;;-0.30;97.80;;;;;;5090689;28;20011;-77
2023/02/16 05:46:07;;;;;;;;;;;-0.40;97.60;;;;;;5089562;28;19904;-78
2023/02/16 05:48:33;;;;;;;;;;;-0.60;96.30;;;;;;5091344;28;20288;-78
2023/02/16 05:50:59;;;;;;;;;;;;;;;;;;5090231;28;20416;-77
2023/02/16 05:53:24;;;;;;;;;;;-0.90;97.60;;;;;;5091491;28;19904;-77
2023/02/16 05:55:50;;;;;;;;;;;-1.00;97.80;;;;;;5090722;28;19908;-77
2023/02/16 05:58:16;;;;;;;;;;;-1.00;97.20;;;;;;5090885;28;19916;-78
2023/02/16 06:00:41;;;;;;;;;;;-0.80;97.70;;;;;;5090672;28;19991;-78
2023/02/16 06:03:06;;;;;;;;;;;-0.80;97.50;;;;;;5090141;28;19920;-78
2023/02/16 06:05:32;;;;;;;;;;;-0.80;98.10;;;;;;5090925;28;19961;-78
2023/02/16 06:07:57;;;;;;;;;;;-0.70;97.90;;;;;;5091165;28;19998;-78
2023/02/16 06:10:23;;;;;;;;;;;-0.70;97.60;;;;;;5090154;28;19908;-78
2023/02/16 06:12:49;;;;;;;;;;;;;;;;;;5090827;28;19910;-77
2023/02/16 06:15:14;;;;;;;;;;;-0.90;98.00;;;;;;5088833;28;19903;-78
2023/02/16 06:17:40;;;;;;;;;;;-0.90;97.40;;;;;;5090479;28;19904;-77
2023/02/16 06:20:06;;;;;;;;;;;;;;;;;;5090052;28;19912;-77
2023/02/16 06:22:31;;;;;;;;;;;-0.90;99.10;;;;;;5090111;28;19923;-77
2023/02/16 06:24:57;;;;;;;;;;;-0.90;97.90;;;;;;5089885;28;19998;-77
2023/02/16 06:27:22;;;;;;;;;;;-0.90;98.20;;;;;;5090362;28;19912;-77
2023/02/16 06:29:48;;;;;;;;;;;-0.80;98.50;;;;;;5090751;28;19907;-77
2023/02/16 06:32:14;;;;;;;;;;;;;;;;;;5090271;28;19951;-77
2023/02/16 06:34:39;;;;;;;;;;;-0.50;97.50;;;;;;5090245;28;19962;-77
2023/02/16 06:37:05;;;;;;;;;;;-0.40;97.30;;;;;;5090562;28;19956;-77
2023/02/16 06:39:30;;;;;;;;;;;-0.40;97.90;;;;;;5088613;28;20363;-77
2023/02/16 06:41:56;;;;;;;;;;;-0.50;97.00;;;;;;5089800;28;19904;-77
2023/02/16 06:44:21;;;;;;;;;;;-0.50;96.50;;;;;;5089963;28;20375;-77
2023/02/16 06:46:47;;;;;;;;;;;-0.60;96.50;;;;;;5089830;28;19915;-77
2023/02/16 06:49:14;;;;;;;;;;;-0.70;96.50;;;;;;5089879;28;20049;-78
2023/02/16 06:51:40;;;;;;;;;;;-0.70;96.80;;;;;;5087531;28;20387;-77
2023/02/16 06:54:05;;;;;;;;;;;-0.70;96.90;;;;;;5089858;28;19946;-77
2023/02/16 06:56:31;;;;;;;;;;;-0.70;96.90;;;;;;5089503;28;19923;-77
2023/02/16 06:58:56;;;;;;;;;;;-0.70;97.80;;;;;;5089844;28;19904;-78
2023/02/16 07:01:24;;;;;;;;;;;-0.90;97.20;;;;;;5089488;28;20470;-78
2023/02/16 07:03:53;;;;;;;;;;;-0.50;96.00;;;;;;5088411;28;19916;-77
2023/02/16 07:06:19;;;;;;;;;;;-0.40;95.80;;;;;;5089619;28;19908;-77
2023/02/16 07:08:45;;;;;;;;;;;-0.40;96.20;;;;;;5089327;28;19929;-77
2023/02/16 07:11:11;;;;;;;;;;;-0.30;97.30;;;;;;5089360;28;20293;-77
2023/02/16 07:13:37;;;;;;;;;;;-0.20;96.40;;;;;;5089091;28;19904;-77
2023/02/16 07:16:03;;;;;;;;;;;0.00;95.80;;;;;;5089777;28;20380;-77
2023/02/16 07:18:29;;;;;;;;;;;;;;;;;;5089284;28;19976;-77
2023/02/16 07:20:54;;;;;;;;;;;0.00;95.30;;;;;;5088881;28;19927;-77
2023/02/16 07:23:21;;;;;;;;;;;0.10;94.20;;;;;;5088667;28;19920;-77
2023/02/16 07:25:46;;;;;;;;;;;0.20;93.20;;;;;;5089384;28;19954;-78
2023/02/16 07:28:12;;;;;;;;;;;0.10;92.50;;;;;;5087316;28;19914;-77
2023/02/16 07:30:38;;;;;;;;;;;0.10;92.40;;;;;;5089158;28;19908;-78
2023/02/16 07:33:05;;;;;;;;;;;0.10;92.90;;;;;;5088877;28;19905;-77
2023/02/16 07:35:31;;;;;;;;;;;0.10;93.30;;;;;;5089207;28;20364;-78
2023/02/16 07:37:56;;;;;;;;;;;0.10;93.00;;;;;;5088854;28;19912;-77
2023/02/16 07:40:22;;;;;;;;;;;0.20;93.00;;;;;;5089310;28;20002;-77
2023/02/16 07:42:48;;;;;;;;;;;0.20;93.10;;;;;;5088986;28;20060;-77
2023/02/16 07:45:14;;;;;;;;;;;;;;;;;;5088819;28;19911;-78
2023/02/16 07:47:39;;;;;;;;;;;0.60;92.80;;;;;;5088992;28;19958;-78
2023/02/16 07:50:05;;;;;;;;;;;2.60;91.00;;;;;;5086901;28;19914;-78
2023/02/16 07:52:30;;;;;;;;;;;6.10;77.80;;;;;;5088599;28;19908;-79
2023/02/16 07:54:57;;;;;;;;;;;12.60;61.30;;;;;;5088950;28;19950;-78
2023/02/16 07:57:23;;;;;;;;;;;17.70;47.50;;;;;;5089689;28;19907;-75
2023/02/16 07:59:52;;;;;;;;;;;19.80;43.10;;;;;;5088697;28;19908;-75
2023/02/16 08:02:18;;;;;;;;;;;26.70;33.90;;;;;;5088876;28;20003;-76
2023/02/16 08:04:44;;;;;;;;;;;27.00;33.90;;;;;;5088505;28;19995;-78
2023/02/16 08:07:16;;;;;;;;;;;29.80;31.00;;;;;;5088963;28;19908;-78
2023/02/16 08:09:42;;;;;;;;;;;31.70;29.60;;;;;;5088506;28;20408;-78
2023/02/16 08:12:08;;;;;;;;;;;34.30;26.90;;;;;;5089291;28;20071;-78
2023/02/16 08:14:34;;;;;;;;;;;34.20;26.60;;;;;;5088535;28;20017;-78
2023/02/16 08:16:59;;;;;;;;;;;35.20;27.70;;;;;;5089297;28;19971;-78
2023/02/16 08:19:26;;;;;;;;;;;36.40;26.30;;;;;;5088090;28;19964;-75
2023/02/16 08:21:51;;;;;;;;;;;36.90;25.20;;;;;;5088074;28;20584;-78
2023/02/16 08:24:17;;;;;;;;;;;36.70;24.00;;;;;;5088582;28;19991;-77
2023/02/16 08:26:43;;;;;;;;;;;36.50;26.60;;;;;;5090865;28;19912;-78
2023/02/16 08:29:11;;;;;;;;;;;36.90;24.00;;;;;;5092693;28;19938;-78
2023/02/16 08:31:37;;;;;;;;;;;38.10;25.00;;;;;;5092056;28;20288;-78
2023/02/16 08:34:03;;;;;;;;;;;39.10;25.40;;;;;;5093072;28;19908;-78
2023/02/16 08:36:31;;;;;;;;;;;39.60;25.60;;;;;;5091677;28;19919;-78
2023/02/16 08:38:57;;;;;;;;;;;40.50;25.50;;;;;;5092612;28;19908;-78
2023/02/16 08:41:27;;;;;;;;;;;41.50;25.00;;;;;;5092235;28;20388;-77
2023/02/16 08:43:53;;;;;;;;;;;42.20;24.50;;;;;;5090880;28;19923;-78
2023/02/16 08:46:20;;;;;;;;;;;42.40;24.70;;;;;;5091951;28;19904;-78
2023/02/16 08:48:46;;;;;;;;;;;42.50;24.30;;;;;;5092364;28;19994;-77
2023/02/16 08:51:17;;;;;;;;;;;42.70;23.00;;;;;;5090989;28;20498;-78
2023/02/16 08:53:43;;;;;;;;;;;;;;;;;;5091956;28;19929;-78
2023/02/16 08:56:09;;;;;;;;;;;43.10;22.60;;;;;;5090847;28;19930;-78
2023/02/16 08:58:38;;;;;;;;;;;43.10;23.60;;;;;;5092472;28;19907;-78
2023/02/16 09:01:05;;;;;;;;;;;43.20;22.50;;;;;;5089144;28;19971;-78
2023/02/16 09:03:31;;;;;;;;;;;43.20;23.60;;;;;;5091071;28;19912;-77
2023/02/16 09:05:59;;;;;;;;;;;43.70;22.70;;;;;;5090631;28;19930;-78
2023/02/16 09:08:25;;;;;;;;;;;44.60;22.90;;;;;;5092280;28;19904;-78
2023/02/16 09:10:50;;;;;;;;;;;44.70;21.80;;;;;;5091008;28;19991;-78
2023/02/16 09:13:16;;;;;;;;;;;45.10;20.90;;;;;;5088336;28;19939;-78
2023/02/16 09:15:42;;;;;;;;;;;45.00;21.70;;;;;;5091822;28;19961;-78
2023/02/16 09:18:08;;;;;;;;;;;45.10;22.90;;;;;;5091870;28;20372;-78
2023/02/16 09:20:38;;;;;;;;;;;45.80;23.00;;;;;;5090903;28;19908;-78
2023/02/16 09:23:04;;;;;;;;;;;46.10;22.40;;;;;;5091304;28;20015;-77
2023/02/16 09:25:30;;;;;;;;;;;46.30;22.50;;;;;;5091743;28;19987;-78
2023/02/16 09:27:55;;;;;;;;;;;45.20;21.00;;;;;;5082066;28;20429;-78
2023/02/16 09:30:21;;;;;;;;;;;45.20;19.70;;;;;;5089566;28;19999;-78
2023/02/16 09:32:46;;;;;;;;;;;45.60;21.70;;;;;;5091604;28;19911;-78
2023/02/16 09:35:12;;;;;;;;;;;45.00;20.70;;;;;;5091255;28;19915;-78
2023/02/16 09:37:37;;;;;;;;;;;42.90;19.10;;;;;;5091042;28;19908;-77
2023/02/16 09:40:04;;;;;;;;;;;45.30;19.40;;;;;;5091409;28;19914;-77
2023/02/16 09:42:33;;;;;;;;;;;45.30;19.60;;;;;;5090995;28;19920;-78
2023/02/16 09:45:04;;;;;;;;;;;44.30;20.00;;;;;;5090574;28;19904;-77
2023/02/16 09:47:30;;;;;;;;;;;44.40;20.40;;;;;;5090469;28;20649;-77
2023/02/16 09:49:58;;;;;;;;;;;44.40;20.00;;;;;;5090192;28;19984;-77
2023/02/16 09:52:39;;;;;;;;;;;44.90;20.20;;;;;;5090243;28;19908;-79
2023/02/16 09:55:12;;;;;;;;;;;45.30;18.40;;;;;;5090699;28;20385;-77
2023/02/16 09:57:40;;;;;;;;;;;45.10;19.50;;;;;;5090595;28;20317;-78
2023/02/16 10:00:17;;;;;;;;;;;44.30;18.90;;;;;;5090768;28;20380;-77
2023/02/16 10:02:42;;;;;;;;;;;44.70;20.00;;;;;;5090300;28;20441;-77
2023/02/16 10:05:29;;;;;;;;;;;45.30;19.70;;;;;;5089034;28;19907;-78
2023/02/16 10:07:55;;;;;;;;;;;46.00;19.60;;;;;;5090710;28;19908;-77
2023/02/16 10:10:22;;;;;;;;;;;46.20;18.60;;;;;;5090642;28;19965;-78
2023/02/16 10:13:08;;;;;;;;;;;46.00;19.30;;;;;;5090406;28;19912;-78
2023/02/16 10:15:34;;;;;;;;;;;46.00;18.40;;;;;;5067587;28;20302;-77
2023/02/16 10:18:07;;;;;;;;;;;45.80;19.70;;;;;;5067118;28;19904;-77
2023/02/16 10:20:39;;;;;;;;;;;45.50;18.80;;;;;;5063791;28;19908;-77
2023/02/16 10:23:14;;;;;;;;;;;45.50;18.40;;;;;;5065753;28;19920;-78
2023/02/16 10:25:43;;;;;;;;;;;45.50;20.00;;;;;;5055632;28;19978;-77
2023/02/16 10:28:19;;;;;;;;;;;46.30;19.50;;;;;;5058004;28;19954;-78
2023/02/16 10:30:49;;;;;;;;;;;45.60;19.30;;;;;;5059238;28;19947;-77
2023/02/16 10:33:21;;;;;;;;;;;45.70;19.70;;;;;;5046073;28;19912;-78
2023/02/16 10:35:48;;;;;;;;;;;45.60;18.20;;;;;;5059554;28;19904;-78
2023/02/16 10:38:21;;;;;;;;;;;45.50;19.40;;;;;;5047443;28;19904;-77
2023/02/16 10:41:07;;;;;;;;;;;45.10;19.60;;;;;;5060560;28;20429;-78
2023/02/16 10:43:42;;;;;;;;;;;45.60;19.40;;;;;;4987514;28;19964;-78
2023/02/16 10:46:09;;;;;;;;;;;46.00;19.70;;;;;;4968991;28;19910;-77
2023/02/16 10:48:35;;;;;;;;;;;45.80;18.90;;;;;;4968349;28;20399;-77
2023/02/16 10:51:01;;;;;;;;;;;45.00;19.20;;;;;;4971826;28;19910;-77
2023/02/16 10:53:35;;;;;;;;;;;44.50;17.90;;;;;;4968817;28;20482;-78
2023/02/16 10:56:01;;;;;;;;;;;44.60;19.10;;;;;;4998551;28;19916;-78
2023/02/16 10:58:34;;;;;;;;;;;45.10;17.90;;;;;;4988237;28;19906;-78
2023/02/16 11:01:04;;;;;;;;;;;45.10;19.00;;;;;;5000523;28;19912;-77
2023/02/16 11:03:32;;;;;;;;;;;44.70;18.30;;;;;;4968653;28;19921;-77
2023/02/16 11:06:11;;;;;;;;;;;44.00;17.80;;;;;;4991836;28;19909;-77
2023/02/16 11:08:52;;;;;;;;;;;44.10;19.00;;;;;;4989516;28;19961;-77
2023/02/16 11:11:18;;;;;;;;;;;44.20;18.70;;;;;;4998389;28;19960;-78
2023/02/16 11:13:47;;;;;;;;;;;44.00;18.80;;;;;;4989926;28;19906;-77
2023/02/16 11:16:21;;;;;;;;;;;43.60;18.70;;;;;;4996088;28;19913;-77
2023/02/16 11:18:54;;;;;;;;;;;43.80;18.80;;;;;;4990632;28;19960;-78
2023/02/16 11:21:20;;;;;;;;;;;43.50;18.80;;;;;;5046063;28;20450;-77
2023/02/16 11:23:57;;;;;;;;;;;43.40;18.50;;;;;;5089671;28;19920;-77
2023/02/16 11:26:23;;;;;;;;;;;42.80;18.40;;;;;;5089120;28;19908;-77
2023/02/16 11:28:49;;;;;;;;;;;42.40;18.50;;;;;;5089741;28;19965;-77
2023/02/16 11:31:24;;;;;;;;;;;41.80;18.40;;;;;;5088824;28;19904;-77
2023/02/16 11:34:07;;;;;;;;;;;40.50;18.60;;;;;;5089483;28;19954;-77
2023/02/16 11:36:34;;;;;;;;;;;40.50;18.60;;;;;;5088490;28;20455;-77
2023/02/16 11:39:02;;;;;;;;;;;40.20;18.60;;;;;;5089381;28;19911;-77
2023/02/16 11:41:28;;;;;;;;;;;39.20;18.70;;;;;;5089127;28;20347;-77
2023/02/16 11:43:54;;;;;;;;;;;38.60;18.80;;;;;;5088697;28;19912;-77
2023/02/16 11:46:21;;;;;;;;;;;38.30;18.80;;;;;;5089059;28;19912;-77
2023/02/16 11:48:46;;;;;;;;;;;37.90;19.00;;;;;;5089327;28;19908;-77
2023/02/16 11:51:14;;;;;;;;;;;36.80;18.90;;;;;;5088460;28;20407;-77
2023/02/16 11:53:41;;;;;;;;;;;35.50;19.10;;;;;;5088756;28;19976;-76
2023/02/16 11:56:22;;;;;;;;;;;33.70;19.60;;;;;;5089388;28;19912;-77
2023/02/16 11:59:07;;;;;;;;;;;32.30;20.00;;;;;;5085928;28;19918;-76
2023/02/16 12:01:45;;;;;;;;;;;31.00;20.40;;;;;;5092893;28;19912;-76
2023/02/16 12:04:16;;;;;;;;;;;30.00;20.70;;;;;;5092696;28;19912;-77
2023/02/16 12:06:44;;;;;;;;;;;29.20;21.00;;;;;;5092266;28;19994;-77
2023/02/16 12:09:12;;;;;;;;;;;28.60;21.50;;;;;;5092958;28;19904;-76
2023/02/16 12:11:46;;;;;;;;;;;28.30;21.80;;;;;;5092285;28;20368;-76
2023/02/16 12:14:21;;;;;;;;;;;27.80;21.70;;;;;;5091869;28;20020;-77
2023/02/16 12:17:04;;;;;;;;;;;27.30;22.00;;;;;;5092909;28;19904;-77
2023/02/16 12:19:40;;;;;;;;;;;26.80;22.10;;;;;;5089787;28;19911;-76
2023/02/16 12:22:15;;;;;;;;;;;26.40;22.10;;;;;;5092548;28;19947;-77
2023/02/16 12:24:59;;;;;;;;;;;25.80;22.60;;;;;;5089260;28;19995;-76
2023/02/16 12:27:43;;;;;;;;;;;23.60;22.10;;;;;;5092522;28;20556;-76
2023/02/16 12:30:12;;;;;;;;;;;25.30;22.80;;;;;;5092466;28;19904;-76
2023/02/16 12:32:38;;;;;;;;;;;25.30;22.70;;;;;;5092797;28;19907;-77
2023/02/16 12:35:22;;;;;;;;;;;25.10;23.00;;;;;;5092804;28;19965;-76
2023/02/16 12:38:08;;;;;;;;;;;24.90;23.00;;;;;;5092501;28;19914;-77
2023/02/16 12:40:52;;;;;;;;;;;23.50;22.50;;;;;;5092116;28;19947;-76
2023/02/16 12:43:27;;;;;;;;;;;24.60;23.10;;;;;;5092375;28;20327;-77
2023/02/16 12:45:54;;;;;;;;;;;24.40;23.10;;;;;;5092427;28;19910;-76
2023/02/16 12:48:23;;;;;;;;;;;24.10;22.90;;;;;;5092016;28;19904;-76
2023/02/16 12:50:50;;;;;;;;;;;24.00;22.90;;;;;;5090582;28;19908;-77
2023/02/16 12:53:25;;;;;;;;;;;23.80;23.30;;;;;;5089078;28;19912;-75
2023/02/16 12:55:55;;;;;;;;;;;23.60;23.40;;;;;;5091837;28;19908;-77
2023/02/16 12:58:20;;;;;;;;;;;23.40;23.80;;;;;;5091598;28;19904;-76
2023/02/16 13:00:48;;;;;;;;;;;23.30;23.90;;;;;;5091972;28;19910;-76
2023/02/16 13:03:13;;;;;;;;;;;23.60;24.00;;;;;;5092028;28;19969;-76
2023/02/16 13:05:40;;;;;;;;;;;23.40;24.00;;;;;;5091417;28;19908;-76
2023/02/16 13:08:17;;;;;;;;;;;23.30;23.90;;;;;;5092372;28;19904;-76
2023/02/16 13:10:55;;;;;;;;;;;23.20;23.80;;;;;;5091182;28;19958;-76
2023/02/16 13:13:23;;;;;;;;;;;23.20;24.00;;;;;;5091952;28;20373;-76
2023/02/16 13:15:51;;;;;;;;;;;23.40;24.20;;;;;;5091701;28;20002;-77
2023/02/16 13:18:20;;;;;;;;;;;23.40;23.90;;;;;;5091882;28;19947;-77
2023/02/16 13:20:51;;;;;;;;;;;23.30;23.70;;;;;;5090596;28;19965;-76
2023/02/16 13:23:26;;;;;;;;;;;23.20;23.90;;;;;;5091511;28;19916;-76
2023/02/16 13:26:10;;;;;;;;;;;23.20;24.10;;;;;;5090970;28;19970;-78
2023/02/16 13:28:42;;;;;;;;;;;23.20;24.00;;;;;;5091967;28;19910;-78
2023/02/16 13:31:22;;;;;;;;;;;23.00;24.10;;;;;;5091173;28;20230;-78
2023/02/16 13:34:06;;;;;;;;;;;22.90;24.40;;;;;;5071658;28;20007;-79
2023/02/16 13:36:32;;;;;;;;;;;23.00;24.50;;;;;;5091041;28;19908;-77
2023/02/16 13:39:17;;;;;;;;;;;23.00;24.20;;;;;;5091795;28;19908;-76
2023/02/16 13:41:48;;;;;;;;;;;22.90;24.20;;;;;;5090629;28;19951;-76
2023/02/16 13:44:15;;;;;;;;;;;22.80;24.30;;;;;;5091201;28;19912;-76
2023/02/16 13:46:43;;;;;;;;;;;22.70;24.50;;;;;;5091168;28;19911;-76
2023/02/16 13:49:27;;;;;;;;;;;22.60;24.50;;;;;;5089497;28;20333;-76
2023/02/16 13:51:53;;;;;;;;;;;22.30;24.30;;;;;;5090670;28;19908;-76
2023/02/16 13:54:25;;;;;;;;;;;22.30;24.40;;;;;;5089733;28;19943;-76
2023/02/16 13:56:51;;;;;;;;;;;22.30;24.10;;;;;;5090600;28;20349;-76
2023/02/16 13:59:17;;;;;;;;;;;22.30;23.80;;;;;;5091063;28;19948;-76
2023/02/16 14:01:43;;;;;;;;;;;22.10;23.70;;;;;;5090962;28;20357;-76
2023/02/16 14:04:11;;;;;;;;;;;22.00;24.00;;;;;;5091274;28;19959;-78
2023/02/16 14:06:38;;;;;;;;;;;21.90;23.80;;;;;;5090872;28;19911;-78
2023/02/16 14:09:13;;;;;;;;;;;21.90;24.10;;;;;;5090841;28;19962;-77
2023/02/16 14:11:53;;;;;;;;;;;21.80;24.00;;;;;;5090743;28;19904;-78
2023/02/16 14:14:32;;;;;;;;;;;21.60;23.60;;;;;;5090467;28;20011;-78
2023/02/16 14:17:13;;;;;;;;;;;21.60;23.80;;;;;;5090423;28;20292;-78
2023/02/16 14:19:39;;;;;;;;;;;21.30;24.00;;;;;;5090562;28;19914;-77
2023/02/16 14:22:10;;;;;;;;;;;21.10;23.80;;;;;;5089130;28;19920;-78
2023/02/16 14:24:36;;;;;;;;;;;21.10;23.80;;;;;;5088545;28;19904;-78
2023/02/16 14:27:06;;;;;;;;;;;21.10;23.70;;;;;;5090265;28;19908;-78
2023/02/16 14:29:31;;;;;;;;;;;21.00;24.30;;;;;;5090541;28;19908;-78
2023/02/16 14:31:57;;;;;;;;;;;21.10;24.90;;;;;;5090052;28;19904;-78
2023/02/16 14:34:43;;;;;;;;;;;21.00;25.10;;;;;;5090469;28;19920;-78
2023/02/16 14:37:15;;;;;;;;;;;21.00;24.80;;;;;;5089662;28;20019;-78
2023/02/16 14:39:42;;;;;;;;;;;20.80;24.60;;;;;;5090433;28;19904;-77
2023/02/16 14:42:15;;;;;;;;;;;20.70;24.60;;;;;;5090098;28;19908;-78
2023/02/16 14:44:40;;;;;;;;;;;20.50;24.60;;;;;;5090142;28;19904;-78
2023/02/16 14:47:13;;;;;;;;;;;20.40;24.80;;;;;;5089798;28;19908;-78
2023/02/16 14:49:38;;;;;;;;;;;20.30;25.10;;;;;;5089815;28;19915;-77
2023/02/16 14:52:16;;;;;;;;;;;20.30;25.30;;;;;;5088215;28;19904;-77
2023/02/16 14:55:00;;;;;;;;;;;20.00;25.20;;;;;;5086745;28;20292;-78
2023/02/16 14:57:34;;;;;;;;;;;20.00;25.30;;;;;;5089879;28;20430;-78
2023/02/16 15:00:00;;;;;;;;;;;19.90;25.20;;;;;;5089533;28;20327;-78
2023/02/16 15:02:33;;;;;;;;;;;19.70;25.30;;;;;;5089573;28;19916;-78
2023/02/16 15:05:15;;;;;;;;;;;19.50;25.40;;;;;;5089700;28;20335;-77
2023/02/16 15:07:40;;;;;;;;;;;19.40;25.70;;;;;;5089337;28;19910;-77
2023/02/16 15:10:07;;;;;;;;;;;19.20;26.00;;;;;;5089490;28;19904;-78
2023/02/16 15:12:35;;;;;;;;;;;19.20;25.80;;;;;;5089745;28;20373;-78
2023/02/16 15:15:06;;;;;;;;;;;19.10;25.80;;;;;;5089699;28;19931;-78
2023/02/16 15:17:46;;;;;;;;;;;19.00;25.80;;;;;;5090069;28;19910;-76
2023/02/16 15:20:26;;;;;;;;;;;18.80;25.90;;;;;;5088039;28;19907;-78
2023/02/16 15:22:53;;;;;;;;;;;18.70;26.10;;;;;;5089273;28;19923;-77
2023/02/16 15:25:45;;;;;;;;;;;18.50;26.10;;;;;;5088353;28;20572;-78